Time;durP1;ratioP1;P1;durP2;ratioP2;P2;SDS_P1;SDS_P2;PMS_P1;PMS_P2;Temp;Humidity;BMP_temperature;BMP_pressure;BME280_temperature;BME280_humidity;BME280_pressure;Samples;Min_cycle;Max_cycle;Signal;HPM_P1;HPM_P2
2021/01/20 00:01:37;;;;;;;16.88;10.18;;;7.30;96.20;;;;;;5033560;28;20029;-87
2021/01/20 00:04:06;;;;;;;15.82;9.68;;;7.30;96.10;;;;;;5001820;28;20038;-88
2021/01/20 00:06:31;;;;;;;14.68;10.18;;;7.30;95.90;;;;;;4984952;28;20462;-87
2021/01/20 00:09:00;;;;;;;13.82;9.48;;;7.30;96.00;;;;;;5017869;28;20033;-88
2021/01/20 00:11:26;;;;;;;18.92;10.00;;;7.30;96.00;;;;;;5000735;28;20018;-87
2021/01/20 00:13:55;;;;;;;16.25;10.32;;;7.30;96.20;;;;;;5000853;28;20441;-87
2021/01/20 00:16:21;;;;;;;17.02;10.43;;;7.30;96.00;;;;;;4984793;28;20036;-87
2021/01/20 00:18:47;;;;;;;16.67;9.55;;;7.30;96.10;;;;;;5017472;28;20034;-88
2021/01/20 00:21:13;;;;;;;15.80;9.02;;;7.20;95.60;;;;;;5018060;28;20021;-88
2021/01/20 00:23:38;;;;;;;14.90;10.10;;;7.30;95.90;;;;;;5017826;28;20886;-87
2021/01/20 00:26:04;;;;;;;14.77;9.60;;;7.30;95.90;;;;;;5001206;28;20033;-87
2021/01/20 00:28:30;;;;;;;15.38;9.85;;;7.30;96.00;;;;;;5027738;28;20080;-88
2021/01/20 00:30:56;;;;;;;17.55;9.95;;;7.30;96.10;;;;;;5001216;28;20021;-89
2021/01/20 00:33:23;;;;;;;16.33;9.57;;;7.20;96.10;;;;;;4997868;28;20482;-87
2021/01/20 00:35:49;;;;;;;17.52;10.05;;;7.20;96.30;;;;;;5013875;28;20033;-87
2021/01/20 00:38:15;;;;;;;16.92;10.35;;;7.20;96.00;;;;;;5013135;28;20112;-87
2021/01/20 00:40:40;;;;;;;14.10;8.63;;;7.20;96.10;;;;;;5017223;28;20112;-87
2021/01/20 00:43:06;;;;;;;15.45;8.43;;;7.20;96.10;;;;;;5020467;28;20049;-87
2021/01/20 00:45:32;;;;;;;16.00;8.02;;;7.20;95.60;;;;;;5037156;28;20040;-87
2021/01/20 00:47:57;;;;;;;11.55;8.15;;;7.10;95.70;;;;;;5001727;28;20029;-88
2021/01/20 00:50:23;;;;;;;14.57;8.90;;;7.10;95.60;;;;;;5001185;28;20030;-87
2021/01/20 00:52:49;;;;;;;13.20;8.57;;;7.10;95.70;;;;;;5014298;28;20377;-86
2021/01/20 00:55:16;;;;;;;15.88;8.88;;;7.10;95.80;;;;;;5025217;28;20040;-86
2021/01/20 00:57:42;;;;;;;15.93;8.13;;;7.10;95.60;;;;;;5054689;28;20038;-87
2021/01/20 01:00:09;;;;;;;14.10;7.40;;;7.10;95.60;;;;;;5036984;28;20025;-86
2021/01/20 01:02:36;;;;;;;12.77;7.47;;;7.10;95.50;;;;;;5020343;28;20503;-86
2021/01/20 01:05:03;;;;;;;14.57;6.82;;;7.10;95.20;;;;;;5036557;28;20519;-87
2021/01/20 01:07:29;;;;;;;14.63;7.82;;;7.10;95.20;;;;;;5036578;28;20024;-86
2021/01/20 01:09:54;;;;;;;12.25;6.25;;;7.10;95.30;;;;;;5002646;28;20462;-87
2021/01/20 01:12:20;;;;;;;15.32;7.32;;;7.10;95.00;;;;;;5008651;28;20116;-86
2021/01/20 01:14:46;;;;;;;12.93;6.82;;;7.10;95.20;;;;;;5036012;28;20124;-86
2021/01/20 01:17:11;;;;;;;13.02;6.47;;;7.10;95.10;;;;;;5003547;28;20113;-86
2021/01/20 01:19:37;;;;;;;9.65;6.80;;;7.10;95.20;;;;;;5020146;28;20067;-87
2021/01/20 01:22:02;;;;;;;14.88;6.47;;;7.00;95.10;;;;;;5019640;28;20488;-87
2021/01/20 01:24:28;;;;;;;14.32;7.82;;;7.10;95.10;;;;;;4994276;28;20044;-86
2021/01/20 01:26:54;;;;;;;13.23;6.25;;;7.10;95.00;;;;;;4988648;28;20037;-87
2021/01/20 01:29:19;;;;;;;15.20;6.85;;;7.10;94.90;;;;;;5012042;28;20053;-87
2021/01/20 01:31:45;;;;;;;11.70;6.43;;;7.10;94.90;;;;;;4990909;28;20025;-86
2021/01/20 01:34:10;;;;;;;10.98;6.13;;;7.10;94.80;;;;;;5015845;28;20025;-85
2021/01/20 01:36:37;;;;;;;12.68;6.05;;;7.10;94.80;;;;;;5010997;28;20489;-86
2021/01/20 01:39:03;;;;;;;13.85;6.50;;;7.10;94.70;;;;;;5013160;28;20041;-87
2021/01/20 01:41:29;;;;;;;11.93;6.40;;;7.10;94.60;;;;;;5035711;28;20530;-87
2021/01/20 01:43:55;;;;;;;11.57;7.20;;;7.10;94.50;;;;;;5035884;28;20112;-88
2021/01/20 01:46:20;;;;;;;16.85;8.02;;;7.10;94.50;;;;;;5015159;28;20036;-85
2021/01/20 01:48:46;;;;;;;11.20;6.25;;;7.20;94.50;;;;;;4999487;28;20041;-85
2021/01/20 01:51:11;;;;;;;13.77;6.25;;;7.20;94.50;;;;;;5029647;28;20037;-85
2021/01/20 01:53:37;;;;;;;16.08;6.57;;;7.20;94.40;;;;;;5023887;28;20104;-85
2021/01/20 01:56:03;;;;;;;11.90;5.85;;;7.20;94.40;;;;;;4985333;28;20360;-85
2021/01/20 01:58:29;;;;;;;12.18;6.03;;;7.10;94.40;;;;;;5052807;28;20041;-87
2021/01/20 02:00:56;;;;;;;13.52;6.18;;;7.20;94.70;;;;;;5019323;28;20029;-86
2021/01/20 02:03:21;;;;;;;10.85;6.90;;;7.10;94.40;;;;;;5019522;28;20037;-86
2021/01/20 02:05:47;;;;;;;12.23;6.38;;;7.10;94.70;;;;;;4992521;28;20441;-85
2021/01/20 02:08:13;;;;;;;16.77;7.43;;;7.10;94.80;;;;;;5029373;28;20087;-86
2021/01/20 02:10:39;;;;;;;10.90;6.20;;;7.10;95.00;;;;;;5015790;28;20059;-86
2021/01/20 02:13:30;;;;;;;17.35;7.72;;;7.10;94.80;;;;;;5015217;28;20029;-85
2021/01/20 02:16:11;;;;;;;;;;;7.10;94.80;;;;;;5033580;28;20021;-86
2021/01/20 02:18:38;;;;;;;15.45;6.35;;;7.10;95.20;;;;;;5021497;28;19995;-86
2021/01/20 02:21:18;;;;;;;12.52;7.72;;;7.00;94.90;;;;;;5012384;28;20030;-86
2021/01/20 02:23:44;;;;;;;10.50;6.43;;;7.10;95.10;;;;;;5029000;28;20017;-86
2021/01/20 02:26:46;;;;;;;13.68;7.40;;;7.10;95.10;;;;;;5021207;28;20127;-86
2021/01/20 02:29:21;;;;;;;15.50;6.60;;;7.10;94.90;;;;;;5034143;28;20179;-85
2021/01/20 02:31:48;;;;;;;10.13;5.85;;;7.10;95.10;;;;;;5052642;28;20025;-86
2021/01/20 02:34:19;;;;;;;11.98;5.88;;;7.10;95.00;;;;;;5034116;28;20047;-85
2021/01/20 02:36:45;;;;;;;;;;;7.10;95.00;;;;;;5035080;28;20021;-86
2021/01/20 02:39:12;;;;;;;13.57;6.60;;;7.10;95.00;;;;;;5034526;28;19912;-85
2021/01/20 02:41:37;;;;;;;12.80;7.03;;;7.10;95.20;;;;;;5018334;28;20112;-86
2021/01/20 02:44:05;;;;;;;13.48;6.57;;;7.10;95.40;;;;;;5017661;28;20129;-86
2021/01/20 02:46:32;;;;;;;13.32;6.97;;;7.10;95.60;;;;;;5034541;28;20460;-85
2021/01/20 02:48:59;;;;;;;16.38;8.35;;;7.10;95.60;;;;;;5022918;28;20029;-86
2021/01/20 02:51:48;;;;;;;12.63;6.60;;;7.20;95.80;;;;;;5049937;28;20087;-86
2021/01/20 02:54:16;;;;;;;14.48;7.20;;;7.10;95.70;;;;;;5021160;28;20022;-85
2021/01/20 02:56:47;;;;;;;12.32;6.35;;;7.20;95.60;;;;;;5007623;28;20029;-87
2021/01/20 02:59:14;;;;;;;12.55;6.72;;;7.20;95.60;;;;;;5014268;28;20036;-87
2021/01/20 03:01:45;;;;;;;14.23;6.70;;;7.20;95.60;;;;;;5032480;28;20041;-87
2021/01/20 03:04:12;;;;;;;;;;;7.20;95.50;;;;;;5015341;28;20021;-86
2021/01/20 03:06:40;;;;;;;14.60;7.53;;;7.20;95.60;;;;;;5031826;28;19940;-86
2021/01/20 03:09:07;;;;;;;10.07;6.25;;;7.20;95.60;;;;;;5014392;28;20030;-87
2021/01/20 03:11:42;;;;;;;13.90;7.00;;;7.20;95.80;;;;;;5013861;28;20034;-86
2021/01/20 03:14:08;;;;;;;12.52;6.80;;;7.20;95.80;;;;;;5016383;28;20023;-86
2021/01/20 03:16:34;;;;;;;14.38;6.65;;;7.20;95.80;;;;;;5003635;28;20025;-86
2021/01/20 03:19:00;;;;;;;10.85;6.75;;;7.30;95.80;;;;;;5002129;28;20037;-85
2021/01/20 03:21:26;;;;;;;11.00;6.65;;;7.20;95.80;;;;;;5014326;28;20502;-86
2021/01/20 03:23:51;;;;;;;12.65;7.30;;;7.30;95.90;;;;;;5002958;28;20382;-87
2021/01/20 03:26:17;;;;;;;12.73;6.65;;;7.20;95.90;;;;;;5019702;28;20017;-86
2021/01/20 03:28:42;;;;;;;11.32;6.30;;;7.20;95.90;;;;;;4999048;28;20056;-87
2021/01/20 03:31:08;;;;;;;18.10;6.72;;;7.30;95.90;;;;;;5014687;28;20032;-86
2021/01/20 03:33:34;;;;;;;13.00;6.40;;;7.30;95.80;;;;;;4982302;28;20382;-85
2021/01/20 03:35:59;;;;;;;11.73;6.53;;;7.30;95.70;;;;;;4998282;28;20107;-86
2021/01/20 03:38:25;;;;;;;12.30;6.15;;;7.30;95.90;;;;;;4997937;28;20037;-85
2021/01/20 03:40:51;;;;;;;12.52;5.82;;;7.30;95.70;;;;;;4982322;28;20033;-85
2021/01/20 03:43:16;;;;;;;12.18;6.45;;;7.30;95.50;;;;;;4979067;28;20033;-86
2021/01/20 03:45:42;;;;;;;11.52;5.82;;;7.30;95.40;;;;;;4989058;28;20122;-87
2021/01/20 03:48:08;;;;;;;9.63;5.40;;;7.30;95.30;;;;;;4997623;28;20036;-88
2021/01/20 03:50:33;;;;;;;11.35;5.55;;;7.30;95.20;;;;;;4982374;28;20589;-86
2021/01/20 03:52:59;;;;;;;10.75;5.70;;;7.30;95.10;;;;;;4981899;28;20029;-88
2021/01/20 03:55:25;;;;;;;10.20;5.30;;;7.30;94.90;;;;;;4997837;28;20452;-87
2021/01/20 03:57:50;;;;;;;9.00;4.60;;;7.40;95.00;;;;;;4997982;28;20033;-86
2021/01/20 04:00:16;;;;;;;12.77;5.30;;;7.40;94.80;;;;;;4981455;28;20026;-86
2021/01/20 04:02:42;;;;;;;6.85;4.53;;;7.40;94.70;;;;;;5014105;28;20033;-86
2021/01/20 04:05:08;;;;;;;8.75;4.72;;;7.40;94.70;;;;;;4981354;28;20075;-86
2021/01/20 04:07:34;;;;;;;7.10;4.05;;;7.50;94.60;;;;;;5014014;28;20100;-86
2021/01/20 04:10:00;;;;;;;10.55;4.78;;;7.50;94.70;;;;;;4998224;28;20478;-85
2021/01/20 04:12:25;;;;;;;11.68;4.78;;;7.50;94.50;;;;;;4997426;28;20075;-86
2021/01/20 04:14:51;;;;;;;6.95;4.13;;;7.50;94.50;;;;;;4978608;28;20030;-86
2021/01/20 04:17:17;;;;;;;9.02;5.30;;;7.60;94.50;;;;;;4994766;28;20430;-86
2021/01/20 04:19:42;;;;;;;9.27;4.78;;;7.60;94.30;;;;;;4997935;28;20032;-86
2021/01/20 04:22:08;;;;;;;8.82;4.75;;;7.60;94.20;;;;;;5012669;28;20140;-86
2021/01/20 04:24:34;;;;;;;8.98;4.47;;;7.60;94.20;;;;;;4985077;28;20038;-86
2021/01/20 04:27:00;;;;;;;9.63;4.28;;;7.60;93.90;;;;;;5010583;28;20072;-86
2021/01/20 04:29:25;;;;;;;8.68;4.55;;;7.60;93.80;;;;;;5003045;28;20501;-86
2021/01/20 04:31:51;;;;;;;9.85;4.80;;;7.70;94.00;;;;;;5001471;28;20393;-86
2021/01/20 04:34:16;;;;;;;10.10;4.10;;;7.70;93.80;;;;;;4987181;28;20018;-86
2021/01/20 04:36:42;;;;;;;8.35;5.05;;;7.70;93.80;;;;;;5017336;28;20037;-86
2021/01/20 04:39:08;;;;;;;8.60;4.32;;;7.70;93.90;;;;;;5016697;28;20113;-86
2021/01/20 04:41:34;;;;;;;7.57;4.47;;;7.70;93.70;;;;;;4997865;28;20025;-87
2021/01/20 04:44:00;;;;;;;8.73;4.03;;;7.70;93.80;;;;;;5014185;28;20382;-85
2021/01/20 04:46:26;;;;;;;6.72;3.67;;;7.80;93.90;;;;;;5000551;28;20026;-87
2021/01/20 04:48:54;;;;;;;7.18;3.83;;;7.80;93.90;;;;;;5016727;28;20037;-86
2021/01/20 04:51:22;;;;;;;9.75;4.63;;;7.90;93.90;;;;;;5016242;28;20022;-85
2021/01/20 04:53:52;;;;;;;9.32;4.05;;;7.90;93.90;;;;;;5007087;28;20091;-85
2021/01/20 04:56:19;;;;;;;9.73;4.97;;;7.90;94.10;;;;;;5012820;28;20053;-86
2021/01/20 04:58:45;;;;;;;7.72;3.92;;;7.90;93.90;;;;;;5017049;28;20036;-85
2021/01/20 05:01:12;;;;;;;7.32;4.18;;;7.90;93.80;;;;;;5016797;28;20022;-85
2021/01/20 05:03:41;;;;;;;10.20;4.47;;;8.00;93.90;;;;;;5000217;28;20049;-85
2021/01/20 05:06:10;;;;;;;6.80;4.07;;;8.00;93.80;;;;;;5016454;28;20029;-87
2021/01/20 05:08:35;;;;;;;7.75;3.95;;;8.00;93.90;;;;;;5000252;28;20560;-85
2021/01/20 05:11:01;;;;;;;7.10;3.72;;;8.00;93.60;;;;;;5000711;28;20029;-85
2021/01/20 05:13:29;;;;;;;6.65;4.03;;;8.00;93.60;;;;;;5000179;28;20036;-85
2021/01/20 05:15:56;;;;;;;7.85;4.13;;;8.00;93.40;;;;;;5000476;28;20060;-85
2021/01/20 05:18:22;;;;;;;9.30;4.10;;;8.00;93.50;;;;;;5000350;28;20034;-87
2021/01/20 05:20:49;;;;;;;9.00;4.15;;;7.90;93.30;;;;;;5016693;28;20100;-85
2021/01/20 05:23:15;;;;;;;8.35;4.55;;;7.90;93.10;;;;;;5000467;28;20025;-86
2021/01/20 05:25:48;;;;;;;8.77;4.38;;;7.90;93.30;;;;;;5016538;28;20032;-86
2021/01/20 05:28:18;;;;;;;9.02;4.50;;;7.90;93.50;;;;;;5042242;28;20056;-86
2021/01/20 05:30:57;;;;;;;8.30;4.05;;;7.90;93.00;;;;;;5018600;28;20098;-85
2021/01/20 05:33:23;;;;;;;7.75;4.18;;;7.90;93.00;;;;;;5035519;28;20021;-85
2021/01/20 05:36:10;;;;;;;7.75;3.72;;;7.90;93.00;;;;;;5021925;28;20033;-85
2021/01/20 05:38:46;;;;;;;8.43;3.72;;;7.90;92.90;;;;;;5043308;28;20033;-85
2021/01/20 05:41:21;;;;;;;7.50;4.07;;;7.90;92.60;;;;;;5033717;28;20017;-85
2021/01/20 05:43:51;;;;;;;7.20;3.33;;;8.00;92.70;;;;;;5023849;28;20076;-86
2021/01/20 05:46:31;;;;;;;7.72;4.25;;;8.00;92.90;;;;;;5051670;28;20020;-86
2021/01/20 05:48:57;;;;;;;7.53;3.60;;;8.00;93.00;;;;;;5007994;28;20048;-85
2021/01/20 05:51:23;;;;;;;9.85;4.32;;;8.00;92.80;;;;;;5005538;28;20545;-86
2021/01/20 05:53:54;;;;;;;8.60;3.80;;;8.00;92.60;;;;;;5024226;28;20037;-86
2021/01/20 05:56:28;;;;;;;7.32;3.70;;;8.00;92.40;;;;;;5017242;28;20026;-90
2021/01/20 05:58:54;;;;;;;8.20;3.97;;;8.00;92.30;;;;;;5008639;28;20030;-87
2021/01/20 06:01:20;;;;;;;8.32;3.55;;;8.00;92.50;;;;;;5028711;28;20025;-86
2021/01/20 06:03:46;;;;;;;5.28;3.15;;;8.00;92.30;;;;;;5032646;28;20087;-87
2021/01/20 06:06:13;;;;;;;5.18;3.20;;;8.10;92.60;;;;;;5033411;28;20040;-86
2021/01/20 06:08:39;;;;;;;6.22;3.60;;;8.00;92.30;;;;;;5012069;28;20033;-87
2021/01/20 06:11:05;;;;;;;7.93;3.60;;;8.00;92.10;;;;;;5021612;28;20029;-87
2021/01/20 06:13:32;;;;;;;7.03;3.78;;;8.00;91.90;;;;;;5050734;28;20104;-86
2021/01/20 06:16:00;;;;;;;6.38;3.63;;;8.10;91.80;;;;;;5021430;28;20028;-85
2021/01/20 06:18:32;;;;;;;6.50;2.97;;;8.10;92.00;;;;;;5019226;28;20101;-86
2021/01/20 06:20:57;;;;;;;5.80;3.33;;;8.10;91.70;;;;;;5034940;28;20112;-86
2021/01/20 06:23:27;;;;;;;6.88;3.38;;;8.10;92.00;;;;;;5018319;28;20116;-88
2021/01/20 06:25:59;;;;;;;9.00;3.13;;;8.10;91.90;;;;;;5015804;28;20029;-85
2021/01/20 06:28:26;;;;;;;6.30;3.75;;;8.10;91.70;;;;;;5013190;28;20053;-87
2021/01/20 06:30:53;;;;;;;6.03;2.90;;;8.10;91.90;;;;;;5013805;28;20528;-86
2021/01/20 06:33:20;;;;;;;8.35;4.45;;;8.10;91.70;;;;;;5011254;28;20029;-86
2021/01/20 06:35:50;;;;;;;7.07;3.65;;;8.20;91.80;;;;;;5014037;28;20029;-85
2021/01/20 06:38:28;;;;;;;5.93;3.05;;;8.20;91.60;;;;;;5030929;28;20021;-86
2021/01/20 06:41:00;;;;;;;5.10;2.42;;;8.20;91.50;;;;;;5032223;28;20025;-86
2021/01/20 06:43:34;;;;;;;6.65;2.92;;;8.20;91.50;;;;;;5030681;28;20474;-87
2021/01/20 06:46:22;;;;;;;5.43;2.72;;;8.20;91.60;;;;;;5031600;28;20024;-86
2021/01/20 06:48:54;;;;;;;6.13;3.00;;;8.20;91.40;;;;;;5032769;28;20092;-86
2021/01/20 06:51:21;;;;;;;5.97;2.70;;;8.20;91.60;;;;;;5031257;28;20061;-86
2021/01/20 06:54:10;;;;;;;5.13;2.72;;;8.20;91.40;;;;;;5030556;28;20104;-87
2021/01/20 06:56:38;;;;;;;6.78;2.90;;;8.20;91.40;;;;;;5018657;28;20021;-86
2021/01/20 06:59:18;;;;;;;6.80;3.00;;;8.20;91.60;;;;;;5034337;28;20031;-87
2021/01/20 07:02:02;;;;;;;4.80;2.67;;;8.20;91.50;;;;;;5032875;28;20029;-87
2021/01/20 07:04:37;;;;;;;6.28;3.05;;;8.30;91.50;;;;;;5029425;28;20116;-89
2021/01/20 07:07:52;;;;;;;7.10;2.83;;;8.30;91.40;;;;;;5030196;28;20033;-85
2021/01/20 07:10:19;;;;;;;4.80;2.35;;;8.30;91.60;;;;;;5031633;28;20017;-87
2021/01/20 07:13:11;;;;;;;8.63;2.85;;;8.30;91.60;;;;;;5030687;28;20070;-86
2021/01/20 07:15:38;;;;;;;10.10;3.83;;;8.30;91.70;;;;;;5024939;28;20037;-86
2021/01/20 07:18:05;;;;;;;5.15;2.83;;;8.30;91.80;;;;;;5031547;28;20053;-86
2021/01/20 07:20:32;;;;;;;7.10;2.55;;;8.30;91.90;;;;;;5030416;28;20030;-86
2021/01/20 07:22:59;;;;;;;6.80;2.53;;;8.30;91.80;;;;;;5031582;28;20087;-85
2021/01/20 07:25:26;;;;;;;6.57;2.75;;;8.30;91.80;;;;;;5029910;28;20377;-86
2021/01/20 07:27:53;;;;;;;5.68;2.90;;;8.30;92.00;;;;;;5027914;28;20489;-87
2021/01/20 07:30:20;;;;;;;5.05;2.40;;;8.30;92.10;;;;;;5028840;28;20055;-87
2021/01/20 07:32:46;;;;;;;7.28;2.72;;;8.40;92.10;;;;;;5029803;28;20030;-86
2021/01/20 07:35:19;;;;;;;5.47;2.50;;;8.40;92.30;;;;;;5013458;28;20037;-87
2021/01/20 07:37:45;;;;;;;5.68;2.40;;;8.40;92.30;;;;;;5029905;28;20083;-86
2021/01/20 07:40:11;;;;;;;6.97;2.50;;;8.40;92.20;;;;;;5013519;28;20026;-85
2021/01/20 07:42:40;;;;;;;5.20;2.50;;;8.40;92.50;;;;;;5013428;28;20417;-87
2021/01/20 07:45:07;;;;;;;5.22;2.72;;;8.40;92.30;;;;;;4989594;28;20025;-85
2021/01/20 07:47:48;;;;;;;4.93;2.72;;;8.40;92.40;;;;;;5016020;28;20121;-87
2021/01/20 07:50:13;;;;;;;4.82;2.47;;;8.40;92.50;;;;;;5005828;28;20061;-87
2021/01/20 07:52:40;;;;;;;5.43;3.25;;;8.40;92.50;;;;;;4997967;28;20049;-85
2021/01/20 07:55:16;;;;;;;4.95;2.42;;;8.40;92.50;;;;;;4996352;28;20029;-85
2021/01/20 07:57:42;;;;;;;5.97;2.70;;;8.50;92.70;;;;;;5028137;28;20067;-84
2021/01/20 08:00:09;;;;;;;5.75;2.50;;;8.50;92.80;;;;;;5032341;28;20021;-86
2021/01/20 08:02:46;;;;;;;4.97;2.38;;;8.50;92.90;;;;;;5033110;28;20022;-86
2021/01/20 08:05:12;;;;;;;5.18;2.75;;;8.50;93.10;;;;;;5031162;28;20029;-85
2021/01/20 08:07:37;;;;;;;5.53;2.78;;;8.50;93.20;;;;;;5031343;28;20064;-85
2021/01/20 08:10:03;;;;;;;4.75;2.63;;;8.50;93.30;;;;;;5033850;28;20065;-85
2021/01/20 08:12:31;;;;;;;4.60;2.80;;;8.50;93.40;;;;;;5014398;28;20504;-86
2021/01/20 08:14:57;;;;;;;4.53;2.70;;;8.50;93.40;;;;;;5008095;28;20030;-85
2021/01/20 08:17:23;;;;;;;5.72;2.60;;;8.50;93.50;;;;;;5030563;28;20116;-87
2021/01/20 08:19:53;;;;;;;4.55;2.58;;;8.50;93.70;;;;;;5033694;28;20021;-85
2021/01/20 08:22:18;;;;;;;4.18;2.70;;;8.50;93.70;;;;;;5034703;28;20485;-85
2021/01/20 08:24:46;;;;;;;3.97;2.72;;;8.50;93.70;;;;;;5018956;28;20045;-85
2021/01/20 08:27:12;;;;;;;5.53;2.72;;;8.50;93.90;;;;;;5032750;28;20033;-86
2021/01/20 08:29:48;;;;;;;5.65;2.58;;;8.50;93.90;;;;;;5034281;28;20080;-86
2021/01/20 08:32:14;;;;;;;4.57;2.60;;;8.50;94.00;;;;;;5022901;28;20018;-86
2021/01/20 08:34:41;;;;;;;6.47;3.38;;;8.60;94.10;;;;;;4998336;28;20032;-86
2021/01/20 08:37:18;;;;;;;5.50;2.70;;;8.50;94.20;;;;;;4998094;28;20038;-87
2021/01/20 08:39:55;;;;;;;5.35;2.78;;;8.50;94.20;;;;;;5016082;28;20028;-86
2021/01/20 08:42:35;;;;;;;5.75;2.88;;;8.50;94.20;;;;;;5026700;28;20029;-85
2021/01/20 08:45:19;;;;;;;5.93;3.33;;;8.50;94.40;;;;;;5018095;28;20109;-86
2021/01/20 08:47:56;;;;;;;5.45;2.38;;;8.50;94.50;;;;;;5016203;28;20132;-85
2021/01/20 08:50:46;;;;;;;5.32;2.70;;;8.50;94.60;;;;;;5008835;28;20021;-85
2021/01/20 08:53:24;;;;;;;4.93;2.70;;;8.50;94.60;;;;;;5035917;28;20021;-86
2021/01/20 08:55:52;;;;;;;7.03;2.85;;;8.50;94.70;;;;;;5037630;28;20036;-85
2021/01/20 08:58:28;;;;;;;4.57;2.63;;;8.50;94.80;;;;;;5005685;28;20040;-88
2021/01/20 09:01:02;;;;;;;5.35;2.60;;;8.50;94.60;;;;;;5053576;28;20044;-84
2021/01/20 09:03:33;;;;;;;3.90;2.22;;;8.50;94.70;;;;;;5021512;28;20029;-85
2021/01/20 09:06:00;;;;;;;3.92;2.40;;;8.50;94.60;;;;;;5026719;28;20359;-83
2021/01/20 09:08:28;;;;;;;5.50;2.38;;;8.50;94.70;;;;;;5033384;28;20061;-85
2021/01/20 09:10:55;;;;;;;5.22;2.38;;;8.50;94.80;;;;;;5035357;28;20081;-83
2021/01/20 09:13:24;;;;;;;5.20;2.40;;;8.60;94.60;;;;;;4986202;28;20030;-84
2021/01/20 09:15:51;;;;;;;4.90;2.63;;;8.50;94.70;;;;;;4986863;28;20045;-86
2021/01/20 09:18:18;;;;;;;3.70;2.05;;;8.60;94.80;;;;;;5024365;28;20462;-87
2021/01/20 09:20:45;;;;;;;4.47;2.28;;;8.60;94.40;;;;;;4999018;28;20378;-86
2021/01/20 09:23:13;;;;;;;4.28;2.38;;;8.70;94.30;;;;;;5015619;28;20436;-84
2021/01/20 09:25:41;;;;;;;3.40;2.13;;;8.70;93.90;;;;;;4983454;28;20362;-89
2021/01/20 09:28:07;;;;;;;3.40;1.90;;;8.70;93.80;;;;;;4984883;28;20057;-84
2021/01/20 09:30:33;;;;;;;4.50;2.10;;;8.80;93.30;;;;;;5031961;28;20128;-84
2021/01/20 09:32:59;;;;;;;18.77;2.95;;;8.80;93.20;;;;;;4981732;28;20794;-85
2021/01/20 09:35:25;;;;;;;6.18;1.95;;;8.80;92.70;;;;;;4995711;28;20084;-85
2021/01/20 09:37:54;;;;;;;4.15;2.08;;;8.80;93.00;;;;;;5031027;28;20026;-85
2021/01/20 09:40:22;;;;;;;6.07;2.40;;;8.90;92.70;;;;;;5032955;28;20116;-84
2021/01/20 09:42:49;;;;;;;4.03;1.95;;;8.90;92.40;;;;;;5014905;28;20032;-86
2021/01/20 09:45:19;;;;;;;3.88;1.90;;;9.00;92.10;;;;;;5033087;28;20072;-85
2021/01/20 09:47:46;;;;;;;4.10;2.00;;;9.00;92.30;;;;;;5032876;28;20036;-85
2021/01/20 09:50:14;;;;;;;3.60;1.92;;;9.00;91.80;;;;;;5018149;28;20101;-85
2021/01/20 09:52:40;;;;;;;3.03;1.95;;;9.00;91.70;;;;;;5033773;28;20030;-85
2021/01/20 09:55:06;;;;;;;4.53;1.83;;;9.10;91.50;;;;;;4999172;28;20116;-85
2021/01/20 09:57:32;;;;;;;5.95;1.88;;;9.10;91.60;;;;;;5015479;28;20470;-84
2021/01/20 09:59:58;;;;;;;3.42;2.05;;;9.20;91.40;;;;;;4998713;28;20120;-85
2021/01/20 10:02:24;;;;;;;5.10;2.20;;;9.20;91.40;;;;;;5015471;28;20026;-84
2021/01/20 10:04:50;;;;;;;4.10;2.03;;;9.30;90.80;;;;;;5016058;28;20068;-84
2021/01/20 10:07:16;;;;;;;4.97;2.00;;;9.30;90.50;;;;;;4999177;28;20034;-84
2021/01/20 10:09:42;;;;;;;5.10;1.80;;;9.30;90.20;;;;;;5006368;28;20030;-89
2021/01/20 10:12:10;;;;;;;2.47;1.42;;;9.30;89.50;;;;;;5021608;28;20033;-85
2021/01/20 10:14:36;;;;;;;3.47;1.75;;;9.40;89.70;;;;;;5010062;28;20022;-85
2021/01/20 10:17:02;;;;;;;3.38;1.83;;;9.50;88.80;;;;;;5011282;28;20045;-85
2021/01/20 10:19:28;;;;;;;4.22;1.70;;;9.50;86.90;;;;;;5010736;28;20547;-86
2021/01/20 10:21:53;;;;;;;2.80;1.60;;;9.50;87.30;;;;;;5011117;28;20033;-85
2021/01/20 10:24:19;;;;;;;3.22;1.85;;;9.60;87.60;;;;;;4997010;28;20390;-85
2021/01/20 10:26:45;;;;;;;3.80;1.73;;;9.60;87.20;;;;;;5021412;28;20036;-87
2021/01/20 10:29:11;;;;;;;4.50;1.92;;;9.60;86.20;;;;;;5041586;28;20142;-86
2021/01/20 10:31:41;;;;;;;3.63;1.63;;;9.60;85.00;;;;;;5014022;28;20028;-85
2021/01/20 10:34:08;;;;;;;4.28;1.80;;;9.60;85.20;;;;;;5028195;28;20112;-86
2021/01/20 10:36:33;;;;;;;3.00;1.65;;;9.60;85.40;;;;;;5021775;28;20053;-88
2021/01/20 10:38:59;;;;;;;4.30;2.05;;;9.60;84.60;;;;;;5052159;28;20122;-85
2021/01/20 10:41:26;;;;;;;3.03;1.80;;;9.60;84.90;;;;;;5028389;28;20099;-85
2021/01/20 10:43:53;;;;;;;3.30;1.73;;;9.60;84.80;;;;;;5045469;28;20025;-87
2021/01/20 10:46:25;;;;;;;6.18;2.20;;;9.60;84.60;;;;;;5057393;28;20036;-85
2021/01/20 10:48:51;;;;;;;3.85;1.80;;;9.60;85.40;;;;;;5020137;28;20036;-86
2021/01/20 10:51:21;;;;;;;7.43;1.88;;;9.50;83.80;;;;;;5023232;28;20071;-83
2021/01/20 10:53:47;;;;;;;3.78;1.70;;;9.60;84.70;;;;;;5039288;28;20032;-88
2021/01/20 10:56:13;;;;;;;5.53;2.13;;;9.60;83.40;;;;;;5037934;28;20025;-84
2021/01/20 10:58:38;;;;;;;5.75;1.83;;;9.60;82.70;;;;;;4989604;28;20281;-83
2021/01/20 11:01:04;;;;;;;2.97;1.60;;;9.60;80.70;;;;;;5035019;28;20025;-84
2021/01/20 11:03:30;;;;;;;3.30;1.70;;;9.60;81.10;;;;;;5046560;28;20488;-83
2021/01/20 11:05:56;;;;;;;4.40;1.70;;;9.60;81.40;;;;;;5026511;28;20108;-85
2021/01/20 11:08:22;;;;;;;3.80;1.60;;;9.70;80.80;;;;;;5033787;28;20029;-84
2021/01/20 11:10:48;;;;;;;2.58;1.60;;;9.70;79.60;;;;;;5031750;28;20542;-86
2021/01/20 11:13:14;;;;;;;5.25;1.90;;;9.70;79.30;;;;;;5031810;28;20033;-85
2021/01/20 11:15:48;;;;;;;4.93;1.83;;;9.70;78.30;;;;;;5017036;28;20032;-85
2021/01/20 11:18:15;;;;;;;3.55;1.63;;;9.70;79.40;;;;;;5024306;28;20029;-83
2021/01/20 11:20:42;;;;;;;4.25;1.90;;;9.70;77.30;;;;;;5029912;28;20032;-83
2021/01/20 11:23:10;;;;;;;5.03;1.80;;;9.80;78.10;;;;;;5024762;28;20386;-85
2021/01/20 11:25:37;;;;;;;2.75;1.42;;;9.80;77.10;;;;;;5011333;28;20036;-84
2021/01/20 11:28:02;;;;;;;4.82;2.15;;;9.90;78.10;;;;;;5020640;28;20056;-84
2021/01/20 11:30:28;;;;;;;5.63;1.75;;;9.90;77.80;;;;;;5017125;28;20037;-87
2021/01/20 11:32:54;;;;;;;3.15;1.58;;;9.90;77.90;;;;;;5036576;28;20029;-85
2021/01/20 11:35:20;;;;;;;4.68;1.80;;;9.90;77.40;;;;;;5026377;28;20041;-85
2021/01/20 11:37:46;;;;;;;5.78;1.92;;;9.90;76.90;;;;;;5031325;28;20474;-83
2021/01/20 11:40:20;;;;;;;3.65;1.80;;;9.90;77.40;;;;;;5010409;28;20021;-84
2021/01/20 11:42:45;;;;;;;2.80;1.60;;;9.90;76.10;;;;;;4992829;28;20021;-84
2021/01/20 11:45:11;;;;;;;3.17;1.63;;;9.90;76.20;;;;;;5006445;28;20122;-87
2021/01/20 11:47:37;;;;;;;5.40;1.67;;;9.90;76.00;;;;;;4998266;28;20037;-86
2021/01/20 11:50:04;;;;;;;4.30;1.60;;;9.90;75.70;;;;;;5007909;28;20084;-85
2021/01/20 11:52:30;;;;;;;3.95;1.90;;;10.00;76.60;;;;;;5012997;28;20017;-87
2021/01/20 11:54:55;;;;;;;4.00;1.77;;;10.00;75.40;;;;;;5022534;28;20043;-85
2021/01/20 11:57:21;;;;;;;9.05;2.25;;;10.00;75.40;;;;;;5013249;28;20041;-85
2021/01/20 11:59:46;;;;;;;2.38;1.40;;;10.00;75.50;;;;;;4991340;28;20022;-85
2021/01/20 12:02:12;;;;;;;4.05;1.70;;;10.10;74.70;;;;;;5006651;28;20513;-85
2021/01/20 12:04:38;;;;;;;6.45;2.45;;;10.10;74.70;;;;;;5010531;28;20029;-84
2021/01/20 12:07:03;;;;;;;4.35;1.70;;;10.10;76.30;;;;;;5012578;28;20057;-86
2021/01/20 12:09:29;;;;;;;4.00;1.50;;;10.10;74.40;;;;;;5000475;28;20030;-85
2021/01/20 12:11:54;;;;;;;4.65;1.70;;;10.10;76.80;;;;;;4990112;28;20017;-85
2021/01/20 12:14:20;;;;;;;4.15;1.50;;;10.20;75.80;;;;;;5036605;28;20037;-85
2021/01/20 12:16:46;;;;;;;4.28;1.55;;;10.10;74.80;;;;;;4979883;28;20036;-85
2021/01/20 12:19:12;;;;;;;2.97;1.50;;;10.10;76.20;;;;;;5000361;28;20029;-85
2021/01/20 12:21:37;;;;;;;4.00;1.75;;;10.10;75.20;;;;;;5016662;28;20049;-85
2021/01/20 12:24:03;;;;;;;3.80;1.88;;;10.00;76.20;;;;;;5000337;28;20021;-88
2021/01/20 12:26:29;;;;;;;2.70;1.67;;;10.10;75.60;;;;;;4998818;28;20549;-86
2021/01/20 12:28:55;;;;;;;4.65;1.92;;;10.00;75.80;;;;;;5003447;28;20192;-89
2021/01/20 12:31:20;;;;;;;6.07;1.88;;;10.00;75.00;;;;;;4995287;28;20029;-86
2021/01/20 12:33:46;;;;;;;6.28;1.90;;;10.00;75.60;;;;;;4983458;28;20041;-86
2021/01/20 12:36:12;;;;;;;6.20;1.70;;;10.00;76.20;;;;;;4996518;28;20033;-84
2021/01/20 12:38:38;;;;;;;5.60;2.83;;;10.00;74.90;;;;;;4994873;28;20033;-86
2021/01/20 12:41:03;;;;;;;5.03;2.28;;;10.00;75.80;;;;;;4999925;28;20034;-86
2021/01/20 12:43:29;;;;;;;5.25;2.00;;;10.00;74.70;;;;;;4998560;28;20033;-88
2021/01/20 12:45:54;;;;;;;6.63;1.85;;;9.90;75.30;;;;;;4998985;28;20036;-86
2021/01/20 12:48:20;;;;;;;4.07;1.88;;;9.90;73.90;;;;;;5016080;28;20055;-88
2021/01/20 12:50:46;;;;;;;4.22;1.83;;;9.90;75.70;;;;;;5034180;28;20060;-86
2021/01/20 12:53:15;;;;;;;3.45;1.77;;;9.90;75.00;;;;;;5015016;28;20040;-84
2021/01/20 12:55:41;;;;;;;4.53;2.03;;;9.90;76.60;;;;;;5014976;28;20432;-86
2021/01/20 12:58:07;;;;;;;4.90;2.17;;;9.80;75.50;;;;;;5014807;28;20088;-86